Time;durP1;ratioP1;P1;durP2;ratioP2;P2;SDS_P1;SDS_P2;PMS_P1;PMS_P2;Temp;Humidity;BMP_temperature;BMP_pressure;BME280_temperature;BME280_humidity;BME280_pressure;Samples;Min_cycle;Max_cycle;Signal;HPM_P1;HPM_P2
2021/04/16 00:01:33;;;;;;;4.85;2.83;;;1.20;99.90;;;;;;1985473;72;21083;-75
2021/04/16 00:03:59;;;;;;;3.20;2.40;;;1.20;99.90;;;;;;1995764;72;21052;-74
2021/04/16 00:06:25;;;;;;;6.67;2.52;;;1.10;99.90;;;;;;1985446;72;21044;-74
2021/04/16 00:08:51;;;;;;;2.95;2.50;;;1.10;99.90;;;;;;1985568;72;21021;-74
2021/04/16 00:11:17;;;;;;;4.40;2.80;;;0.90;99.90;;;;;;1985527;72;21126;-74
2021/04/16 00:13:43;;;;;;;2.90;2.25;;;1.00;99.90;;;;;;1985556;72;21202;-74
2021/04/16 00:16:10;;;;;;;3.92;2.65;;;0.90;99.90;;;;;;1985471;72;21114;-74
2021/04/16 00:18:36;;;;;;;3.67;2.30;;;0.90;99.90;;;;;;1985374;72;21060;-74
2021/04/16 00:21:02;;;;;;;6.47;3.22;;;0.80;99.90;;;;;;1985578;72;21060;-74
2021/04/16 00:23:28;;;;;;;3.77;3.08;;;0.90;99.90;;;;;;1985557;72;21416;-75
2021/04/16 00:25:54;;;;;;;4.10;2.47;;;0.90;99.90;;;;;;1985547;72;21466;-74
2021/04/16 00:28:21;;;;;;;4.05;2.60;;;0.80;99.90;;;;;;1985507;72;21482;-75
2021/04/16 00:30:48;;;;;;;3.12;2.50;;;0.80;99.90;;;;;;1985306;72;21045;-75
2021/04/16 00:33:14;;;;;;;4.08;2.35;;;0.80;99.90;;;;;;1985519;72;21044;-75
2021/04/16 00:35:40;;;;;;;6.78;2.75;;;0.80;99.90;;;;;;1985420;72;21053;-74
2021/04/16 00:38:06;;;;;;;5.58;3.05;;;0.70;99.90;;;;;;1985500;72;21476;-74
2021/04/16 00:40:32;;;;;;;3.92;2.52;;;0.80;99.90;;;;;;1985307;72;21425;-75
2021/04/16 00:42:58;;;;;;;3.92;2.45;;;0.80;99.90;;;;;;1985498;72;21440;-74
2021/04/16 00:45:24;;;;;;;4.42;2.80;;;0.80;99.90;;;;;;1985274;72;21037;-74
2021/04/16 00:47:50;;;;;;;9.83;2.70;;;0.70;99.90;;;;;;1985285;72;21012;-74
2021/04/16 00:50:18;;;;;;;2.62;2.05;;;0.70;99.90;;;;;;1985458;72;21182;-74
2021/04/16 00:52:44;;;;;;;2.27;1.75;;;0.70;99.90;;;;;;1985604;72;21157;-75
2021/04/16 00:55:10;;;;;;;4.45;2.05;;;0.70;99.90;;;;;;1986384;72;21118;-74
2021/04/16 00:57:36;;;;;;;1.90;1.60;;;0.60;99.90;;;;;;1976940;72;21064;-75
2021/04/16 01:00:02;;;;;;;1.77;1.65;;;0.70;99.90;;;;;;1985485;72;21052;-74
2021/04/16 01:02:28;;;;;;;2.65;2.02;;;0.60;99.90;;;;;;1985499;72;21417;-75
2021/04/16 01:04:55;;;;;;;6.15;2.10;;;0.50;99.90;;;;;;1985407;72;21445;-74
2021/04/16 01:07:21;;;;;;;5.00;1.70;;;0.50;99.90;;;;;;1985286;72;21513;-74
2021/04/16 01:09:47;;;;;;;5.70;1.80;;;0.60;99.90;;;;;;1985484;72;21048;-73
2021/04/16 01:12:13;;;;;;;3.15;2.22;;;0.50;99.90;;;;;;1979745;72;21092;-74
2021/04/16 01:14:39;;;;;;;1.77;1.35;;;0.50;99.90;;;;;;1985443;72;21145;-74
2021/04/16 01:17:05;;;;;;;1.72;1.45;;;0.50;99.90;;;;;;1985575;72;21056;-75
2021/04/16 01:19:31;;;;;;;2.10;1.57;;;0.40;99.90;;;;;;1986659;72;21041;-73
2021/04/16 01:21:58;;;;;;;3.60;1.72;;;0.30;99.90;;;;;;1985344;72;21030;-74
2021/04/16 01:24:24;;;;;;;3.90;1.72;;;0.30;99.90;;;;;;1985342;72;21181;-74
2021/04/16 01:26:51;;;;;;;2.45;1.47;;;0.20;99.90;;;;;;1986512;72;21060;-74
2021/04/16 01:29:17;;;;;;;2.25;1.75;;;0.20;99.90;;;;;;1985374;72;21114;-74
2021/04/16 01:31:49;;;;;;;1.72;1.62;;;0.20;99.90;;;;;;1985494;72;21091;-74
2021/04/16 01:34:15;;;;;;;2.35;1.90;;;0.10;99.90;;;;;;1985222;72;21041;-74
2021/04/16 01:36:41;;;;;;;3.67;1.75;;;0.00;99.90;;;;;;1985355;72;21017;-74
2021/04/16 01:39:08;;;;;;;2.52;1.32;;;0.00;99.90;;;;;;1985331;72;21105;-73
2021/04/16 01:41:34;;;;;;;1.40;1.30;;;0.00;99.90;;;;;;1985476;72;21096;-74
2021/04/16 01:44:00;;;;;;;5.08;2.22;;;0.10;99.90;;;;;;1985493;72;21045;-74
2021/04/16 01:46:26;;;;;;;2.25;2.00;;;0.10;99.90;;;;;;1985362;72;21048;-74
2021/04/16 01:48:52;;;;;;;1.45;1.35;;;0.00;99.90;;;;;;1985340;72;21050;-74
2021/04/16 01:51:18;;;;;;;4.78;2.37;;;-0.10;99.90;;;;;;1985350;72;21025;-74
2021/04/16 01:53:44;;;;;;;3.55;2.87;;;-0.10;99.90;;;;;;1985550;72;21060;-74
2021/04/16 01:56:11;;;;;;;4.85;2.55;;;-0.10;99.90;;;;;;1985413;72;21477;-74
2021/04/16 01:58:37;;;;;;;5.03;2.58;;;-0.10;99.90;;;;;;1985305;72;21060;-74
2021/04/16 02:01:03;;;;;;;5.25;2.75;;;0.00;99.90;;;;;;1985440;72;21095;-74
2021/04/16 02:03:29;;;;;;;10.78;3.17;;;-0.10;99.90;;;;;;1985612;72;21044;-73
2021/04/16 02:05:56;;;;;;;3.33;2.15;;;-0.10;99.90;;;;;;1985605;72;21026;-73
2021/04/16 02:08:22;;;;;;;10.80;2.27;;;-0.10;99.90;;;;;;1985496;72;21496;-74
2021/04/16 02:10:48;;;;;;;4.10;2.00;;;-0.10;99.90;;;;;;1985604;72;21529;-74
2021/04/16 02:13:14;;;;;;;2.83;2.20;;;-0.20;99.90;;;;;;1985475;72;21045;-73
2021/04/16 02:15:41;;;;;;;1.92;1.75;;;-0.10;99.90;;;;;;1985392;72;21082;-74
2021/04/16 02:18:07;;;;;;;4.53;2.12;;;-0.10;99.90;;;;;;1985542;72;21048;-75
2021/04/16 02:20:33;;;;;;;2.55;2.12;;;0.00;99.90;;;;;;1985386;72;21040;-73
2021/04/16 02:22:59;;;;;;;1.77;1.67;;;0.00;99.90;;;;;;1985352;72;20993;-74
2021/04/16 02:25:25;;;;;;;2.42;1.60;;;0.00;99.90;;;;;;1985604;72;21048;-74
2021/04/16 02:27:51;;;;;;;3.52;1.62;;;0.00;99.90;;;;;;1985377;72;21122;-73
2021/04/16 02:30:17;;;;;;;2.12;1.20;;;0.00;99.90;;;;;;1985587;72;21044;-73
2021/04/16 02:32:43;;;;;;;1.80;1.60;;;-0.10;99.90;;;;;;1985732;72;21045;-75
2021/04/16 02:35:09;;;;;;;2.45;1.62;;;-0.20;99.90;;;;;;1985727;72;21094;-73
2021/04/16 02:37:36;;;;;;;1.65;1.47;;;-0.20;99.90;;;;;;1986095;72;21025;-73
2021/04/16 02:40:02;;;;;;;1.47;1.35;;;-0.20;99.90;;;;;;1985985;72;21045;-72
2021/04/16 02:42:28;;;;;;;2.75;1.42;;;-0.20;99.90;;;;;;1985997;72;21044;-73
2021/04/16 02:44:54;;;;;;;1.90;1.47;;;-0.20;99.90;;;;;;1986181;72;21145;-73
2021/04/16 02:47:21;;;;;;;4.70;1.55;;;-0.30;99.90;;;;;;1985427;72;21134;-74
2021/04/16 02:49:47;;;;;;;1.47;1.30;;;-0.30;99.90;;;;;;1985386;72;21012;-73
2021/04/16 02:52:13;;;;;;;1.40;1.30;;;-0.20;99.90;;;;;;1985616;72;21084;-74
2021/04/16 02:54:39;;;;;;;2.02;1.40;;;-0.30;99.90;;;;;;1985482;72;21060;-73
2021/04/16 02:57:05;;;;;;;2.85;1.90;;;-0.30;99.90;;;;;;1985430;72;21111;-73
2021/04/16 02:59:31;;;;;;;1.72;1.20;;;-0.20;99.90;;;;;;1988071;72;21118;-74
2021/04/16 03:01:57;;;;;;;1.30;1.20;;;-0.30;99.90;;;;;;1985558;72;21040;-73
2021/04/16 03:04:23;;;;;;;2.72;1.30;;;-0.30;99.90;;;;;;1985574;72;21114;-73
2021/04/16 03:06:50;;;;;;;1.95;1.25;;;-0.30;99.90;;;;;;1985454;72;21017;-73
2021/04/16 03:09:16;;;;;;;1.45;1.35;;;-0.40;99.90;;;;;;1985501;72;21044;-73
2021/04/16 03:11:42;;;;;;;5.50;1.70;;;-0.40;99.90;;;;;;1990570;72;21056;-73
2021/04/16 03:14:08;;;;;;;1.50;1.40;;;-0.30;99.90;;;;;;1985448;72;21025;-74
2021/04/16 03:16:34;;;;;;;1.87;1.67;;;-0.30;99.90;;;;;;1985468;72;21147;-73
2021/04/16 03:19:00;;;;;;;1.80;1.62;;;-0.40;99.90;;;;;;1987745;72;21076;-73
2021/04/16 03:21:26;;;;;;;1.82;1.42;;;-0.40;99.90;;;;;;1985451;72;21427;-73
2021/04/16 03:23:52;;;;;;;1.98;1.72;;;-0.40;99.90;;;;;;1985625;72;21536;-75
2021/04/16 03:26:20;;;;;;;1.37;1.27;;;-0.50;99.90;;;;;;1989182;72;21433;-73
2021/04/16 03:28:46;;;;;;;14.65;1.80;;;-0.50;99.90;;;;;;1985521;72;21052;-74
2021/04/16 03:31:12;;;;;;;1.80;1.65;;;-0.40;99.90;;;;;;1985584;72;21026;-73
2021/04/16 03:33:38;;;;;;;2.15;1.60;;;-0.40;99.90;;;;;;1985452;72;21114;-74
2021/04/16 03:36:04;;;;;;;2.08;1.87;;;-0.40;99.90;;;;;;1985439;72;21153;-74
2021/04/16 03:38:30;;;;;;;2.15;1.65;;;-0.40;99.90;;;;;;1976845;72;21079;-75
2021/04/16 03:40:57;;;;;;;2.83;1.65;;;-0.50;99.90;;;;;;1985521;72;21064;-74
2021/04/16 03:43:23;;;;;;;1.40;1.30;;;-0.50;99.90;;;;;;1986643;72;20994;-74
2021/04/16 03:45:49;;;;;;;5.62;1.67;;;-0.50;99.90;;;;;;1986606;72;21573;-75
2021/04/16 03:48:15;;;;;;;1.87;1.57;;;-0.50;99.90;;;;;;1985407;72;21440;-74
2021/04/16 03:50:41;;;;;;;2.27;1.57;;;-0.50;99.90;;;;;;1986667;72;21503;-75
2021/04/16 03:53:07;;;;;;;6.20;2.12;;;-0.50;99.90;;;;;;1985442;72;21111;-73
2021/04/16 03:55:33;;;;;;;3.70;1.90;;;-0.60;99.90;;;;;;1985451;72;21025;-72
2021/04/16 03:58:00;;;;;;;6.20;1.92;;;-0.60;99.90;;;;;;1985307;72;21021;-73
2021/04/16 04:00:26;;;;;;;4.15;1.90;;;-0.50;99.90;;;;;;1985651;72;21122;-73
2021/04/16 04:02:52;;;;;;;5.60;2.00;;;-0.50;99.90;;;;;;1985330;72;21499;-72
2021/04/16 04:05:19;;;;;;;3.22;1.95;;;-0.60;99.90;;;;;;1985537;72;21052;-72
2021/04/16 04:07:45;;;;;;;2.50;2.02;;;-0.50;99.90;;;;;;1985328;72;21122;-73
2021/04/16 04:10:11;;;;;;;3.98;1.95;;;-0.60;99.90;;;;;;1985568;72;21030;-72
2021/04/16 04:12:37;;;;;;;2.17;1.98;;;-0.50;99.90;;;;;;1985536;72;21044;-72
2021/04/16 04:15:03;;;;;;;1.77;1.40;;;-0.50;99.90;;;;;;1985473;72;21136;-72
2021/04/16 04:17:29;;;;;;;2.67;1.90;;;-0.60;99.90;;;;;;1985290;72;21060;-73
2021/04/16 04:19:55;;;;;;;2.05;1.80;;;-0.60;99.90;;;;;;1985525;72;21056;-73
2021/04/16 04:22:21;;;;;;;1.85;1.65;;;-0.70;99.90;;;;;;1985651;72;21041;-74
2021/04/16 04:24:48;;;;;;;2.98;2.12;;;-0.60;99.90;;;;;;1985599;72;21138;-73
2021/04/16 04:27:15;;;;;;;2.72;2.30;;;-0.50;99.90;;;;;;1985633;72;21052;-73
2021/04/16 04:29:41;;;;;;;2.45;1.65;;;-0.70;99.90;;;;;;1985620;72;21068;-73
2021/04/16 04:32:07;;;;;;;2.08;1.87;;;-0.60;99.90;;;;;;1985305;72;21625;-73
2021/04/16 04:34:34;;;;;;;4.40;2.60;;;-0.70;99.90;;;;;;1985521;72;21064;-74
2021/04/16 04:37:00;;;;;;;2.60;1.85;;;-0.70;99.90;;;;;;1985553;72;20993;-73
2021/04/16 04:39:26;;;;;;;4.60;1.82;;;-0.70;99.90;;;;;;1985532;72;21064;-73
2021/04/16 04:41:52;;;;;;;6.47;2.08;;;-0.60;99.90;;;;;;1985698;72;21052;-73
2021/04/16 04:44:18;;;;;;;2.27;1.72;;;-0.50;99.90;;;;;;1985324;72;21053;-73
2021/04/16 04:46:44;;;;;;;2.02;1.82;;;-0.60;99.90;;;;;;1985565;72;21072;-74
2021/04/16 04:49:11;;;;;;;2.45;1.92;;;-0.60;99.90;;;;;;1985324;72;21033;-69
2021/04/16 04:51:37;;;;;;;3.17;2.12;;;-0.60;99.90;;;;;;1985685;72;20997;-70
2021/04/16 04:54:03;;;;;;;2.05;1.87;;;-0.50;99.90;;;;;;1985415;72;21461;-71
2021/04/16 04:56:29;;;;;;;4.15;2.05;;;-0.60;99.90;;;;;;1985527;72;21464;-69
2021/04/16 04:58:56;;;;;;;2.85;2.02;;;-0.60;99.90;;;;;;1985194;72;21487;-69
2021/04/16 05:01:22;;;;;;;4.22;2.42;;;-0.40;99.90;;;;;;1985438;72;21052;-69
2021/04/16 05:03:48;;;;;;;1.72;1.62;;;-0.50;99.90;;;;;;1985236;72;21056;-69
2021/04/16 05:06:14;;;;;;;2.27;2.08;;;-0.30;99.90;;;;;;1985521;72;21033;-69
2021/04/16 05:08:40;;;;;;;2.85;2.10;;;-0.50;99.90;;;;;;1985429;72;21094;-71
2021/04/16 05:11:08;;;;;;;8.18;2.02;;;-0.40;99.90;;;;;;1985389;72;21052;-69
2021/04/16 05:13:34;;;;;;;2.47;2.15;;;-0.50;99.90;;;;;;1985367;72;21532;-70
2021/04/16 05:16:00;;;;;;;3.95;2.60;;;-0.30;99.90;;;;;;1985358;72;21093;-70
2021/04/16 05:18:26;;;;;;;4.33;2.87;;;-0.40;99.90;;;;;;1985319;72;21033;-70
2021/04/16 05:20:52;;;;;;;8.25;2.95;;;-0.30;99.90;;;;;;1985355;72;21138;-72
2021/04/16 05:23:18;;;;;;;5.30;2.50;;;-0.20;99.90;;;;;;1985402;72;21130;-71
2021/04/16 05:25:44;;;;;;;3.90;2.58;;;-0.10;99.90;;;;;;1985281;72;21133;-72
2021/04/16 05:28:11;;;;;;;10.30;2.58;;;0.00;99.90;;;;;;1985477;72;21049;-72
2021/04/16 05:30:37;;;;;;;8.35;3.20;;;0.00;99.90;;;;;;1985503;72;21033;-71
2021/04/16 05:33:03;;;;;;;2.55;2.35;;;0.20;99.90;;;;;;1985573;72;21057;-70
2021/04/16 05:35:29;;;;;;;7.72;3.52;;;0.20;99.90;;;;;;1985752;72;21052;-72
2021/04/16 05:37:59;;;;;;;3.62;2.83;;;0.20;99.90;;;;;;1985670;72;21091;-71
2021/04/16 05:40:23;;;;;;;3.95;2.75;;;0.20;99.90;;;;;;1984185;72;21150;-69
2021/04/16 05:42:49;;;;;;;4.80;3.00;;;0.40;99.90;;;;;;1985512;72;21134;-69
2021/04/16 05:45:16;;;;;;;4.50;2.87;;;0.50;99.90;;;;;;1958478;72;21091;-69
2021/04/16 05:47:42;;;;;;;3.45;2.90;;;0.70;99.90;;;;;;1985433;72;21555;-71
2021/04/16 05:50:08;;;;;;;5.58;2.85;;;0.70;99.90;;;;;;1985626;72;21496;-70
2021/04/16 05:52:34;;;;;;;5.35;2.85;;;1.00;99.90;;;;;;1985329;72;21072;-69
2021/04/16 05:55:00;;;;;;;5.47;2.87;;;1.10;99.90;;;;;;1985604;72;21044;-70
2021/04/16 05:57:26;;;;;;;7.35;2.75;;;1.10;99.90;;;;;;1985326;72;21110;-71
2021/04/16 05:59:52;;;;;;;3.80;3.20;;;1.10;99.90;;;;;;1985557;72;21041;-70
2021/04/16 06:02:19;;;;;;;5.15;3.47;;;1.20;99.90;;;;;;1985685;72;21114;-70
2021/04/16 06:04:45;;;;;;;7.65;3.25;;;1.30;99.90;;;;;;1985642;72;21101;-70
2021/04/16 06:07:11;;;;;;;5.55;3.00;;;1.40;99.90;;;;;;1985698;72;21029;-70
2021/04/16 06:09:37;;;;;;;3.83;2.52;;;1.60;99.90;;;;;;1985371;72;21029;-70
2021/04/16 06:12:03;;;;;;;5.55;2.98;;;1.80;99.90;;;;;;1985503;72;21048;-70
2021/04/16 06:14:29;;;;;;;4.95;2.80;;;2.00;99.90;;;;;;1986575;72;21072;-72
2021/04/16 06:16:55;;;;;;;8.18;3.12;;;2.00;99.90;;;;;;1985480;72;21064;-72
2021/04/16 06:19:21;;;;;;;5.80;3.10;;;2.20;99.90;;;;;;1989544;72;21582;-72
2021/04/16 06:21:48;;;;;;;5.60;3.12;;;2.30;99.90;;;;;;1985566;72;21440;-70
2021/04/16 06:24:14;;;;;;;4.67;2.90;;;2.10;99.90;;;;;;1985296;72;21122;-72
2021/04/16 06:26:40;;;;;;;6.17;2.60;;;2.10;99.90;;;;;;1964641;72;21050;-72
2021/04/16 06:29:06;;;;;;;8.33;3.40;;;2.20;99.90;;;;;;1985344;72;21044;-70
2021/04/16 06:31:32;;;;;;;12.28;3.65;;;2.40;99.90;;;;;;1985580;72;21025;-70
2021/04/16 06:33:59;;;;;;;7.42;3.25;;;2.50;99.90;;;;;;1985503;72;21048;-72
2021/04/16 06:36:25;;;;;;;8.33;3.55;;;2.70;99.90;;;;;;1985450;72;21181;-70
2021/04/16 06:38:51;;;;;;;6.95;3.77;;;2.70;99.90;;;;;;1985443;72;21500;-71
2021/04/16 06:41:17;;;;;;;6.60;2.85;;;2.80;99.90;;;;;;1985495;72;21448;-71
2021/04/16 06:43:44;;;;;;;4.05;3.42;;;3.00;99.90;;;;;;1985426;72;21114;-70
2021/04/16 06:46:10;;;;;;;4.83;3.35;;;3.30;99.90;;;;;;1993178;72;21146;-70
2021/04/16 06:48:36;;;;;;;7.42;3.70;;;3.40;99.90;;;;;;1985446;72;21483;-71
2021/04/16 06:51:02;;;;;;;5.97;2.87;;;3.60;99.90;;;;;;1985500;72;21487;-71
2021/04/16 06:53:28;;;;;;;3.52;2.17;;;3.60;99.90;;;;;;1985394;72;21481;-70
2021/04/16 06:55:54;;;;;;;2.95;2.35;;;3.40;99.90;;;;;;1985479;72;21025;-71
2021/04/16 06:58:20;;;;;;;7.28;3.00;;;3.60;99.90;;;;;;1985350;72;21130;-72
2021/04/16 07:00:46;;;;;;;3.47;2.00;;;3.80;99.90;;;;;;1985448;72;21025;-72
2021/04/16 07:03:13;;;;;;;3.22;2.67;;;4.10;99.90;;;;;;1985370;72;21114;-71
2021/04/16 07:05:39;;;;;;;3.60;2.10;;;4.00;99.90;;;;;;1985529;72;21130;-71
2021/04/16 07:08:05;;;;;;;5.58;2.17;;;4.10;99.90;;;;;;1985304;72;21365;-72
2021/04/16 07:10:31;;;;;;;7.40;2.47;;;4.40;99.90;;;;;;1985412;72;21471;-71
2021/04/16 07:12:57;;;;;;;3.72;2.00;;;4.40;99.90;;;;;;1985405;72;21496;-70
2021/04/16 07:15:23;;;;;;;2.12;1.90;;;4.60;99.90;;;;;;1985385;72;21549;-74
2021/04/16 07:17:49;;;;;;;1.57;1.47;;;4.50;99.90;;;;;;1985453;72;21052;-71
2021/04/16 07:20:15;;;;;;;6.05;2.12;;;4.30;99.90;;;;;;1985450;72;21168;-70
2021/04/16 07:22:42;;;;;;;1.55;1.45;;;4.70;99.90;;;;;;1985471;72;21029;-73
2021/04/16 07:25:08;;;;;;;2.45;1.47;;;5.10;99.90;;;;;;1985569;72;21117;-70
2021/04/16 07:27:34;;;;;;;2.10;1.75;;;4.90;99.90;;;;;;1985530;72;21049;-70
2021/04/16 07:30:00;;;;;;;1.70;1.60;;;4.90;99.90;;;;;;1985342;72;21141;-68
2021/04/16 07:32:28;;;;;;;1.95;1.57;;;4.90;99.90;;;;;;1985557;72;21126;-69
2021/04/16 07:34:55;;;;;;;2.35;1.45;;;4.70;99.90;;;;;;1985255;72;21582;-69
2021/04/16 07:37:22;;;;;;;4.30;2.12;;;4.70;99.90;;;;;;1985569;72;21056;-69
2021/04/16 07:39:51;;;;;;;1.87;1.52;;;4.80;99.90;;;;;;1985556;72;21130;-69
2021/04/16 07:42:17;;;;;;;1.40;1.30;;;4.70;99.90;;;;;;1985157;72;21148;-73
2021/04/16 07:44:43;;;;;;;1.75;1.60;;;4.60;99.90;;;;;;1985561;72;21052;-71
2021/04/16 07:47:09;;;;;;;2.62;1.95;;;4.40;99.90;;;;;;1985663;72;21054;-74
2021/04/16 07:49:35;;;;;;;2.90;1.70;;;4.40;99.90;;;;;;1985648;72;21239;-74
2021/04/16 07:52:01;;;;;;;1.60;1.50;;;4.70;99.90;;;;;;1985682;72;21033;-73
2021/04/16 07:54:28;;;;;;;2.55;1.47;;;4.80;99.90;;;;;;1985644;72;21052;-74
2021/04/16 07:56:54;;;;;;;3.40;1.77;;;4.90;99.90;;;;;;1985528;72;21525;-74
2021/04/16 07:59:20;;;;;;;4.97;2.02;;;4.80;99.90;;;;;;1985333;72;21056;-73
2021/04/16 08:01:46;;;;;;;2.58;2.08;;;4.70;99.90;;;;;;1985423;72;21056;-73
2021/04/16 08:04:12;;;;;;;1.67;1.57;;;4.70;99.90;;;;;;1985439;72;21064;-73
2021/04/16 08:06:39;;;;;;;1.87;1.67;;;4.70;99.90;;;;;;1985442;72;21052;-76
2021/04/16 08:09:05;;;;;;;3.50;2.10;;;4.80;99.90;;;;;;1985470;72;21176;-78
2021/04/16 08:11:31;;;;;;;2.30;1.60;;;5.00;99.90;;;;;;1985435;72;21569;-75
2021/04/16 08:13:57;;;;;;;1.72;1.62;;;5.00;99.90;;;;;;1985460;72;21358;-74
2021/04/16 08:16:23;;;;;;;2.02;1.82;;;5.20;99.90;;;;;;1985443;72;21029;-74
2021/04/16 08:18:49;;;;;;;2.27;1.95;;;5.20;99.90;;;;;;1985406;72;21055;-74
2021/04/16 08:21:17;;;;;;;2.00;1.80;;;5.10;99.90;;;;;;1985465;72;21177;-74
2021/04/16 08:23:43;;;;;;;2.42;1.90;;;5.20;99.90;;;;;;1985371;72;21472;-75
2021/04/16 08:26:09;;;;;;;2.05;1.52;;;5.60;99.90;;;;;;1985415;72;21052;-74
2021/04/16 08:28:36;;;;;;;2.70;1.75;;;5.60;99.90;;;;;;1985435;72;21165;-75
2021/04/16 08:31:02;;;;;;;2.70;1.90;;;5.50;99.90;;;;;;1985526;72;21133;-75
2021/04/16 08:33:28;;;;;;;1.60;1.50;;;5.30;99.90;;;;;;1985163;72;21049;-75
2021/04/16 08:35:55;;;;;;;2.85;2.08;;;5.40;99.90;;;;;;1985469;71;21068;-75
2021/04/16 08:38:21;;;;;;;2.60;1.80;;;5.50;99.90;;;;;;1985605;72;21033;-75
2021/04/16 08:40:47;;;;;;;1.98;1.70;;;5.60;99.90;;;;;;1985307;72;21501;-75
2021/04/16 08:43:13;;;;;;;2.33;1.82;;;5.70;99.90;;;;;;1985500;72;21451;-75
2021/04/16 08:45:39;;;;;;;2.05;1.70;;;5.50;99.90;;;;;;1985336;72;21100;-74
2021/04/16 08:48:10;;;;;;;1.55;1.45;;;5.40;99.90;;;;;;1995656;72;21100;-75
2021/04/16 08:50:33;;;;;;;3.67;1.90;;;5.70;99.90;;;;;;1984999;72;21065;-76
2021/04/16 08:52:59;;;;;;;5.72;1.60;;;5.80;99.90;;;;;;1985282;72;21048;-75
2021/04/16 08:55:26;;;;;;;2.08;1.87;;;6.20;99.90;;;;;;1985533;72;21161;-75
2021/04/16 08:57:52;;;;;;;2.30;1.82;;;6.00;99.90;;;;;;1985379;72;21168;-76
2021/04/16 09:00:21;;;;;;;2.27;1.77;;;6.00;99.90;;;;;;1981450;72;21113;-77
2021/04/16 09:02:46;;;;;;;3.27;2.30;;;6.10;99.90;;;;;;1982747;72;21540;-77
2021/04/16 09:05:13;;;;;;;1.67;1.57;;;5.80;99.90;;;;;;1986804;72;21060;-75
2021/04/16 09:07:39;;;;;;;2.37;1.90;;;6.10;99.90;;;;;;1985551;72;21055;-75
2021/04/16 09:10:05;;;;;;;3.17;2.05;;;6.00;99.90;;;;;;1986722;72;21519;-75
2021/04/16 09:12:31;;;;;;;2.27;1.90;;;6.10;99.90;;;;;;1985506;72;21081;-77
2021/04/16 09:14:58;;;;;;;3.02;2.20;;;6.10;99.90;;;;;;1985518;72;21029;-76
2021/04/16 09:17:24;;;;;;;2.50;2.30;;;6.10;99.90;;;;;;1985649;72;21064;-75
2021/04/16 09:19:50;;;;;;;3.33;2.08;;;6.40;99.90;;;;;;1985452;72;21499;-75
2021/04/16 09:22:16;;;;;;;2.95;2.05;;;6.50;99.90;;;;;;1985481;72;21595;-75
2021/04/16 09:24:42;;;;;;;2.12;1.77;;;6.60;99.90;;;;;;1985741;72;21472;-75
2021/04/16 09:27:08;;;;;;;2.27;1.90;;;6.70;99.90;;;;;;1985393;72;21484;-75
2021/04/16 09:29:34;;;;;;;2.30;2.05;;;6.80;99.90;;;;;;1985909;72;21122;-75
2021/04/16 09:32:02;;;;;;;2.87;2.02;;;6.50;99.90;;;;;;1985401;72;21056;-75
2021/04/16 09:37:14;;;;;;;4.05;1.80;;;7.00;99.90;;;;;;1950099;74;21069;-73
2021/04/16 09:39:43;;;;;;;4.95;2.08;;;7.00;99.90;;;;;;1950314;74;21036;-75
2021/04/16 09:42:09;;;;;;;2.17;1.80;;;7.10;99.90;;;;;;1949492;73;21070;-76
2021/04/16 09:44:35;;;;;;;3.72;2.22;;;7.30;99.90;;;;;;1948656;74;21064;-77
2021/04/16 09:47:03;;;;;;;2.30;1.82;;;7.60;99.90;;;;;;1948671;73;21138;-77
2021/04/16 09:49:29;;;;;;;2.30;1.70;;;8.20;99.90;;;;;;1948622;74;21064;-77
2021/04/16 09:51:55;;;;;;;2.25;1.70;;;7.80;99.90;;;;;;1948853;74;21093;-76
2021/04/16 09:54:21;;;;;;;1.80;1.70;;;7.50;99.90;;;;;;1948605;74;21056;-76
2021/04/16 09:56:47;;;;;;;1.70;1.50;;;7.40;99.90;;;;;;1948704;74;21083;-77
2021/04/16 09:59:13;;;;;;;1.42;1.32;;;7.00;99.90;;;;;;1948491;74;21118;-77
2021/04/16 10:01:39;;;;;;;1.57;1.47;;;7.30;99.90;;;;;;1948595;74;21167;-78
2021/04/16 10:04:13;;;;;;;1.75;1.52;;;7.10;99.90;;;;;;1948734;74;21085;-77
2021/04/16 10:06:38;;;;;;;2.40;1.67;;;7.50;99.90;;;;;;1948503;73;21085;-77
2021/04/16 10:09:04;;;;;;;3.25;1.52;;;7.50;99.90;;;;;;1948593;74;21045;-78
2021/04/16 10:11:30;;;;;;;2.83;1.95;;;7.80;99.90;;;;;;1948721;74;21355;-78
2021/04/16 10:13:56;;;;;;;3.12;1.80;;;7.40;99.90;;;;;;1948806;74;21097;-78
2021/04/16 10:16:22;;;;;;;1.82;1.70;;;7.60;99.90;;;;;;1948894;74;21093;-79
2021/04/16 10:18:48;;;;;;;2.15;1.42;;;7.80;99.90;;;;;;1948721;74;21093;-79
2021/04/16 10:21:21;;;;;;;3.00;1.50;;;8.30;99.90;;;;;;1948563;74;21033;-79
2021/04/16 10:23:43;;;;;;;3.75;1.40;;;8.10;99.90;;;;;;1946745;73;21085;-78
2021/04/16 10:40:31;;;;;;;1.95;1.77;;;7.90;99.90;;;;;;1877278;76;21567;-79
2021/04/16 10:51:47;;;;;;;1.77;1.62;;;6.90;99.90;;;;;;1948506;74;21090;-77
2021/04/16 11:21:18;;;;;;;5.85;2.08;;;8.10;99.90;;;;;;1948606;74;21063;-77
2021/04/16 12:40:25;;;;;;;2.50;2.15;;;7.50;99.90;;;;;;1948520;74;21513;-75
2021/04/16 12:42:51;;;;;;;2.25;1.80;;;7.50;99.90;;;;;;1948492;74;21497;-75
2021/04/16 12:45:19;;;;;;;3.10;2.20;;;7.20;99.90;;;;;;1948481;74;21557;-74
2021/04/16 12:47:45;;;;;;;1.92;1.75;;;7.00;99.90;;;;;;1948590;74;21068;-75
2021/04/16 12:50:11;;;;;;;2.40;1.67;;;6.80;99.90;;;;;;1948510;74;21116;-74
2021/04/16 12:52:37;;;;;;;2.72;2.02;;;6.80;99.90;;;;;;1948500;74;21037;-73
2021/04/16 12:55:03;;;;;;;2.72;2.10;;;6.70;99.90;;;;;;1948436;74;21060;-78
2021/04/16 12:57:29;;;;;;;3.17;1.95;;;6.60;99.90;;;;;;1948442;74;21072;-78
2021/04/16 12:59:55;;;;;;;2.15;1.80;;;6.60;99.90;;;;;;1948418;74;21581;-75
2021/04/16 13:02:21;;;;;;;3.00;2.10;;;6.60;99.90;;;;;;1948506;74;21483;-75
2021/04/16 13:04:47;;;;;;;3.52;2.10;;;6.70;99.90;;;;;;1948375;74;21496;-74
2021/04/16 13:07:13;;;;;;;2.65;1.80;;;6.70;99.90;;;;;;1948519;74;21065;-75
2021/04/16 13:09:40;;;;;;;1.77;1.67;;;6.70;99.90;;;;;;1948384;74;21130;-75
2021/04/16 13:12:06;;;;;;;2.30;2.02;;;6.70;99.90;;;;;;1948507;74;21060;-75
2021/04/16 13:14:32;;;;;;;1.30;1.30;;;6.70;99.90;;;;;;1948333;74;21068;-75
2021/04/16 13:16:58;;;;;;;3.20;2.40;;;6.70;99.90;;;;;;1948567;74;21037;-75
2021/04/16 13:19:24;;;;;;;3.60;2.47;;;7.00;99.90;;;;;;1948249;74;21065;-75
2021/04/16 13:21:51;;;;;;;1.47;1.37;;;7.10;99.90;;;;;;1948570;74;21190;-76
2021/04/16 13:24:17;;;;;;;4.50;1.85;;;7.10;99.90;;;;;;1948392;74;21072;-75
2021/04/16 13:26:43;;;;;;;6.00;1.98;;;7.10;99.90;;;;;;1948530;74;21072;-75
2021/04/16 13:29:09;;;;;;;3.70;2.02;;;7.30;99.90;;;;;;1948402;74;21417;-75
2021/04/16 13:31:35;;;;;;;9.43;1.98;;;7.50;99.90;;;;;;1948634;74;21479;-75
2021/04/16 13:34:01;;;;;;;2.90;1.92;;;7.60;99.90;;;;;;1948438;74;21570;-75
2021/04/16 13:36:27;;;;;;;2.70;1.92;;;7.30;99.90;;;;;;1948421;74;21060;-75
2021/04/16 13:38:53;;;;;;;4.78;1.95;;;7.30;99.90;;;;;;1948389;74;21065;-75
2021/04/16 13:41:20;;;;;;;7.67;4.10;;;7.50;99.90;;;;;;1948422;74;21127;-75
2021/04/16 13:43:46;;;;;;;3.00;2.00;;;7.90;99.90;;;;;;1948424;74;21037;-76
2021/04/16 13:46:12;;;;;;;2.02;1.82;;;8.20;99.90;;;;;;1948449;74;21061;-76
2021/04/16 13:48:38;;;;;;;4.53;2.37;;;8.70;99.90;;;;;;1948490;74;21064;-76
2021/04/16 13:51:04;;;;;;;1.92;1.70;;;8.60;99.90;;;;;;1948540;74;21064;-76
2021/04/16 13:53:30;;;;;;;4.28;1.77;;;8.50;99.90;;;;;;1948560;74;21178;-75
2021/04/16 13:55:56;;;;;;;1.60;1.50;;;8.30;99.90;;;;;;1948558;74;21060;-76
2021/04/16 13:58:22;;;;;;;2.20;1.70;;;8.50;99.90;;;;;;1948693;73;21159;-75
2021/04/16 14:00:50;;;;;;;2.17;1.50;;;8.50;99.90;;;;;;1947992;74;21072;-76
2021/04/16 14:03:16;;;;;;;2.05;1.42;;;8.20;99.90;;;;;;1948483;73;21081;-74
2021/04/16 14:05:42;;;;;;;2.30;1.52;;;8.20;99.90;;;;;;1948647;74;21077;-75
2021/04/16 14:08:09;;;;;;;2.60;1.72;;;7.90;99.90;;;;;;1940313;74;21076;-75
2021/04/16 14:10:35;;;;;;;1.95;1.62;;;7.90;99.90;;;;;;1948622;74;21037;-75
2021/04/16 14:13:01;;;;;;;1.90;1.42;;;8.00;99.90;;;;;;1947621;74;21136;-75
2021/04/16 14:15:27;;;;;;;1.98;1.32;;;8.20;99.90;;;;;;1948610;74;21073;-76
2021/04/16 14:17:53;;;;;;;1.45;1.17;;;8.30;99.90;;;;;;1948613;74;21097;-75
2021/04/16 14:20:19;;;;;;;1.42;1.32;;;7.80;99.90;;;;;;1940799;73;21077;-76
2021/04/16 14:22:45;;;;;;;1.72;1.30;;;8.00;99.90;;;;;;1948626;74;21138;-77
2021/04/16 14:25:11;;;;;;;1.95;1.65;;;7.80;99.90;;;;;;1947092;74;21140;-78
2021/04/16 14:27:38;;;;;;;1.20;1.10;;;8.10;99.90;;;;;;1948705;74;21072;-81
2021/04/16 14:30:04;;;;;;;0.95;0.90;;;8.10;99.90;;;;;;1948488;74;21037;-74
2021/04/16 14:32:30;;;;;;;2.00;1.20;;;8.20;99.90;;;;;;1948718;74;21059;-79
2021/04/16 14:34:56;;;;;;;3.10;1.20;;;8.30;99.90;;;;;;1948475;74;21578;-75
2021/04/16 14:37:23;;;;;;;1.67;1.30;;;8.20;99.90;;;;;;1948695;74;21089;-75
2021/04/16 14:39:49;;;;;;;3.52;1.40;;;8.10;99.90;;;;;;1948618;74;21060;-75
2021/04/16 14:42:15;;;;;;;2.00;1.50;;;8.00;99.90;;;;;;1948737;74;21074;-76
2021/04/16 14:44:41;;;;;;;1.30;1.20;;;8.20;99.90;;;;;;1948670;73;21110;-74
2021/04/16 14:47:07;;;;;;;2.58;1.40;;;8.30;99.90;;;;;;1948649;74;21073;-76
2021/04/16 14:49:33;;;;;;;4.33;1.75;;;8.20;99.90;;;;;;1948580;74;21122;-76
2021/04/16 14:51:59;;;;;;;5.15;1.32;;;8.20;99.90;;;;;;1948560;74;21122;-74
2021/04/16 14:54:25;;;;;;;2.85;1.40;;;8.20;99.90;;;;;;1948585;74;21065;-75
2021/04/16 14:56:51;;;;;;;1.25;1.15;;;8.20;99.90;;;;;;1948567;74;21111;-75
2021/04/16 14:59:18;;;;;;;1.95;1.57;;;8.30;99.90;;;;;;1948507;74;21492;-74